createdAt,value
2018-02-16T07:33:40.856Z,17.7
2018-02-16T07:34:40.449Z,17.7
2018-02-16T07:35:40.461Z,17.69
2018-02-16T07:36:40.724Z,17.67
2018-02-16T07:37:40.457Z,17.62
2018-02-16T07:38:40.481Z,17.61
2018-02-16T07:39:40.451Z,17.56
2018-02-16T07:40:40.479Z,17.54
2018-02-16T07:41:40.507Z,17.51
2018-02-16T07:42:40.409Z,17.49
2018-02-16T07:43:40.440Z,17.47
2018-02-16T07:44:40.403Z,17.44
2018-02-16T07:45:40.438Z,17.42
2018-02-16T07:46:40.406Z,17.41
2018-02-16T07:47:40.417Z,17.39
2018-02-16T07:48:40.399Z,17.36
2018-02-16T07:49:40.671Z,17.35
2018-02-16T07:50:40.427Z,17.34
2018-02-16T07:51:40.408Z,17.34
2018-02-16T07:52:40.423Z,17.36
2018-02-16T07:53:40.411Z,17.41
2018-02-16T07:54:40.414Z,17.44
2018-02-16T07:55:40.462Z,17.48
2018-02-16T07:56:40.420Z,17.5
2018-02-16T07:57:40.402Z,17.54
2018-02-16T07:58:40.689Z,17.57
2018-02-16T07:59:40.412Z,17.6
2018-02-16T08:00:40.408Z,17.62
2018-02-16T08:01:40.402Z,17.65
2018-02-16T08:02:40.413Z,17.68
2018-02-16T08:03:40.414Z,17.71
2018-02-16T08:04:40.414Z,17.73
2018-02-16T08:05:40.395Z,17.75
2018-02-16T08:06:40.412Z,17.77
2018-02-16T08:07:40.408Z,17.79
2018-02-16T08:08:40.389Z,17.82
2018-02-16T08:09:40.395Z,17.81
2018-02-16T08:10:40.410Z,17.8
2018-02-16T08:11:40.387Z,17.8
2018-02-16T08:12:40.603Z,17.81
2018-02-16T08:13:40.410Z,17.82
2018-02-16T08:14:40.428Z,17.82
2018-02-16T08:15:40.408Z,17.83
2018-02-16T08:16:40.414Z,17.84
2018-02-16T08:17:40.428Z,17.85
2018-02-16T08:18:40.410Z,17.85
2018-02-16T08:19:40.438Z,17.86
2018-02-16T08:20:40.432Z,17.86
2018-02-16T08:21:40.403Z,17.88
2018-02-16T08:22:40.401Z,17.89
2018-02-16T08:23:40.404Z,17.9
2018-02-16T08:24:40.402Z,17.91
2018-02-16T08:25:40.410Z,17.92
2018-02-16T08:26:40.466Z,17.92
2018-02-16T08:27:40.402Z,17.93
2018-02-16T08:28:40.400Z,17.94
2018-02-16T08:29:40.398Z,17.96
2018-02-16T08:30:40.399Z,17.96
2018-02-16T08:31:40.377Z,17.97
2018-02-16T08:32:40.579Z,17.98
2018-02-16T08:33:40.400Z,17.98
2018-02-16T08:34:40.405Z,17.99
2018-02-16T08:35:40.400Z,18
2018-02-16T08:36:40.400Z,18.01
2018-02-16T08:37:40.450Z,18.03
2018-02-16T08:38:40.403Z,18.04
2018-02-16T08:39:40.379Z,18.04
2018-02-16T08:40:40.462Z,18.05
2018-02-16T08:41:40.399Z,18.06
2018-02-16T08:42:40.508Z,18.07
2018-02-16T08:43:40.396Z,18.08
2018-02-16T08:44:40.414Z,18.09
2018-02-16T08:45:40.402Z,18.1
2018-02-16T08:46:40.410Z,18.1
2018-02-16T08:47:40.384Z,18.11
2018-02-16T08:48:40.388Z,18.12
2018-02-16T08:49:40.395Z,18.13
2018-02-16T08:50:40.402Z,18.14
2018-02-16T08:51:40.375Z,18.15
2018-02-16T08:52:40.386Z,18.15
2018-02-16T08:53:40.403Z,18.16
2018-02-16T08:54:40.496Z,18.17
2018-02-16T08:55:40.511Z,18.21
2018-02-16T08:56:40.396Z,18.24
2018-02-16T08:57:40.662Z,18.27
2018-02-16T08:58:40.402Z,18.3
2018-02-16T08:59:40.391Z,18.34
2018-02-16T09:00:40.777Z,18.37
2018-02-16T09:01:40.389Z,18.39
2018-02-16T09:02:40.390Z,18.41
2018-02-16T09:03:40.428Z,18.43
2018-02-16T09:04:40.411Z,18.46
2018-02-16T09:05:40.404Z,18.48
2018-02-16T09:06:40.406Z,18.5
2018-02-16T09:07:40.403Z,18.53
2018-02-16T09:08:40.434Z,18.54
2018-02-16T09:09:40.367Z,18.55
2018-02-16T09:10:40.402Z,18.58
2018-02-16T09:11:40.386Z,18.59
2018-02-16T09:12:40.379Z,18.59
2018-02-16T09:13:40.387Z,18.6
2018-02-16T09:14:40.484Z,18.6
2018-02-16T09:15:40.492Z,18.61
2018-02-16T09:16:40.389Z,18.62
2018-02-16T09:17:40.356Z,18.63
2018-02-16T09:18:40.418Z,18.64
2018-02-16T09:19:40.400Z,18.64
2018-02-16T09:20:40.456Z,18.66
2018-02-16T09:21:40.390Z,18.68
2018-02-16T09:22:40.423Z,18.67
2018-02-16T09:23:40.410Z,18.68
2018-02-16T09:24:40.401Z,18.69
2018-02-16T09:25:40.381Z,18.66
2018-02-16T09:26:40.503Z,18.65
2018-02-16T09:27:40.500Z,18.64
2018-02-16T09:28:40.399Z,18.65
2018-02-16T09:29:40.367Z,18.66
2018-02-16T09:30:40.457Z,18.66
2018-02-16T09:31:40.400Z,18.66
2018-02-16T09:32:40.394Z,18.67
2018-02-16T09:33:40.487Z,18.67
2018-02-16T09:34:40.423Z,18.67
2018-02-16T09:35:40.384Z,18.67
2018-02-16T09:36:40.436Z,18.68
2018-02-16T09:37:40.486Z,18.69
2018-02-16T09:38:40.518Z,18.69
2018-02-16T09:39:40.389Z,18.7
2018-02-16T09:40:40.388Z,18.71
2018-02-16T09:41:40.443Z,18.72
2018-02-16T09:42:40.373Z,18.72
2018-02-16T09:43:40.387Z,18.73
2018-02-16T09:44:40.420Z,18.74
2018-02-16T09:45:40.449Z,18.73
2018-02-16T09:46:40.461Z,18.73
2018-02-16T09:47:40.456Z,18.74
2018-02-16T09:48:40.394Z,18.75
2018-02-16T09:49:40.426Z,18.75
2018-02-16T09:50:40.392Z,18.75
2018-02-16T09:51:40.444Z,18.76
2018-02-16T09:52:40.464Z,18.74
2018-02-16T09:53:40.401Z,18.73
2018-02-16T09:54:40.388Z,18.72
2018-02-16T09:55:40.428Z,18.7
2018-02-16T09:56:40.389Z,18.69
2018-02-16T09:57:40.467Z,18.66
2018-02-16T09:58:40.661Z,18.66
2018-02-16T09:59:40.492Z,18.66
2018-02-16T10:00:40.446Z,18.65
2018-02-16T10:01:40.426Z,18.65
2018-02-16T10:02:40.439Z,18.64
2018-02-16T10:03:40.451Z,18.64
2018-02-16T10:04:40.478Z,18.63
2018-02-16T10:05:40.380Z,18.63
2018-02-16T10:06:40.367Z,18.63
2018-02-16T10:07:40.425Z,18.62
2018-02-16T10:08:40.365Z,18.62
2018-02-16T10:09:40.444Z,18.62
2018-02-16T10:10:40.462Z,18.62
2018-02-16T10:11:40.370Z,18.62
2018-02-16T10:12:40.378Z,18.62
2018-02-16T10:13:40.368Z,18.62
2018-02-16T10:14:40.372Z,18.62
2018-02-16T10:15:40.374Z,18.62
2018-02-16T10:16:40.376Z,18.62
2018-02-16T10:17:40.374Z,18.62
2018-02-16T10:18:40.466Z,18.62
2018-02-16T10:19:40.676Z,18.62
2018-02-16T10:20:40.340Z,18.62
2018-02-16T10:21:40.353Z,18.63
2018-02-16T10:22:40.381Z,18.63
2018-02-16T10:23:40.370Z,18.63
2018-02-16T10:24:40.418Z,18.62
2018-02-16T10:25:40.381Z,18.63
2018-02-16T10:26:40.469Z,18.62
2018-02-16T10:27:40.490Z,18.62
2018-02-16T10:28:40.356Z,18.62
2018-02-16T10:29:40.394Z,18.62
2018-02-16T10:30:40.436Z,18.62
2018-02-16T10:31:40.372Z,18.62
2018-02-16T10:32:40.356Z,18.62
2018-02-16T10:33:40.368Z,18.62
2018-02-16T10:34:40.479Z,18.62
2018-02-16T10:35:40.369Z,18.62
2018-02-16T10:36:40.426Z,18.63
2018-02-16T10:37:40.361Z,18.63
2018-02-16T10:38:40.361Z,18.65
2018-02-16T10:39:40.386Z,18.69
2018-02-16T10:40:40.357Z,18.72
2018-02-16T10:41:40.340Z,18.73
2018-02-16T10:42:40.493Z,18.76
2018-02-16T10:43:40.353Z,18.78
2018-02-16T10:44:40.389Z,18.77
2018-02-16T10:45:40.368Z,18.78
2018-02-16T10:46:40.364Z,18.78
2018-02-16T10:47:40.376Z,18.78
2018-02-16T10:48:40.374Z,18.79
2018-02-16T10:49:40.520Z,18.84
2018-02-16T10:50:40.359Z,18.85
2018-02-16T10:51:40.395Z,18.87
2018-02-16T10:52:40.334Z,18.87
2018-02-16T10:53:40.361Z,18.88
2018-02-16T10:54:40.351Z,18.88
2018-02-16T10:55:40.377Z,18.9
2018-02-16T10:56:40.386Z,18.94
2018-02-16T10:57:40.436Z,18.97
2018-02-16T10:58:40.350Z,18.98
2018-02-16T10:59:40.408Z,19
2018-02-16T11:00:40.366Z,18.99
2018-02-16T11:01:40.435Z,18.99
2018-02-16T11:02:40.373Z,18.97
2018-02-16T11:03:40.385Z,18.97
2018-02-16T11:04:40.391Z,18.97
2018-02-16T11:05:40.390Z,18.96
2018-02-16T11:06:40.422Z,18.94
2018-02-16T11:07:40.467Z,18.94
2018-02-16T11:08:40.359Z,18.92
2018-02-16T11:09:40.376Z,18.91
2018-02-16T11:10:40.343Z,18.9
2018-02-16T11:11:40.349Z,18.89
2018-02-16T11:12:40.432Z,18.89
2018-02-16T11:13:40.362Z,18.88
2018-02-16T11:14:40.354Z,18.87
2018-02-16T11:15:40.470Z,18.87
2018-02-16T11:16:40.445Z,18.86
2018-02-16T11:17:40.360Z,18.86
2018-02-16T11:18:40.338Z,18.86
2018-02-16T11:19:40.402Z,18.85
2018-02-16T11:20:40.350Z,18.85
2018-02-16T11:21:40.327Z,18.88
2018-02-16T11:22:40.318Z,18.91
2018-02-16T11:23:40.373Z,18.94
2018-02-16T11:24:40.418Z,18.97
2018-02-16T11:25:40.353Z,18.99
2018-02-16T11:26:40.383Z,19.02
2018-02-16T11:27:40.363Z,19.04
2018-02-16T11:28:40.390Z,19.08
2018-02-16T11:29:40.316Z,19.09
2018-02-16T11:30:40.432Z,19.12
2018-02-16T11:31:40.460Z,19.15
2018-02-16T11:32:40.344Z,19.18
2018-02-16T11:33:40.397Z,19.21
2018-02-16T11:34:40.381Z,19.21
2018-02-16T11:35:40.322Z,19.23
2018-02-16T11:36:40.352Z,19.26
2018-02-16T11:37:40.319Z,19.27
2018-02-16T11:38:40.345Z,19.29
2018-02-16T11:39:40.370Z,19.29
2018-02-16T11:40:40.385Z,19.31
2018-02-16T11:41:40.335Z,19.31
2018-02-16T11:42:40.464Z,19.3
2018-02-16T11:43:40.340Z,19.33
2018-02-16T11:44:40.333Z,19.33
2018-02-16T11:45:40.315Z,19.35
2018-02-16T11:46:40.321Z,19.35
2018-02-16T11:47:40.338Z,19.36
2018-02-16T11:48:40.373Z,19.37
2018-02-16T11:49:40.339Z,19.38
2018-02-16T11:50:40.335Z,19.39
2018-02-16T11:51:40.398Z,19.39
2018-02-16T11:52:40.348Z,19.4
2018-02-16T11:53:40.344Z,19.41
2018-02-16T11:54:40.463Z,19.42
2018-02-16T11:55:40.343Z,19.43
2018-02-16T11:56:40.338Z,19.44
2018-02-16T11:57:40.401Z,19.44
2018-02-16T11:58:40.332Z,19.45
2018-02-16T11:59:40.330Z,19.46
2018-02-16T12:00:40.443Z,19.46
2018-02-16T12:01:40.332Z,19.47
2018-02-16T12:02:40.337Z,19.47
2018-02-16T12:03:40.379Z,19.48
2018-02-16T12:04:40.405Z,19.48
2018-02-16T12:05:40.376Z,19.49
2018-02-16T12:06:40.342Z,19.49
2018-02-16T12:07:40.383Z,19.51
2018-02-16T12:08:40.310Z,19.51
2018-02-16T12:09:40.406Z,19.51
2018-02-16T12:10:40.709Z,19.53
2018-02-16T12:11:40.330Z,19.53
2018-02-16T12:12:40.355Z,19.54
2018-02-16T12:13:40.349Z,19.54
2018-02-16T12:14:40.329Z,19.56
2018-02-16T12:15:40.404Z,19.56
2018-02-16T12:16:40.414Z,19.55
2018-02-16T12:17:40.322Z,19.55
2018-02-16T12:18:40.344Z,19.56
2018-02-16T12:19:40.311Z,19.56
2018-02-16T12:20:40.346Z,19.56
2018-02-16T12:21:40.371Z,19.57
2018-02-16T12:22:40.318Z,19.56
2018-02-16T12:23:40.323Z,19.55
2018-02-16T12:24:40.318Z,19.52
2018-02-16T12:25:40.392Z,19.51
2018-02-16T12:26:40.333Z,19.5
2018-02-16T12:27:40.329Z,19.47
2018-02-16T12:28:40.324Z,19.45
2018-02-16T12:29:40.322Z,19.44
2018-02-16T12:30:40.350Z,19.42
2018-02-16T12:31:40.355Z,19.41
2018-02-16T12:32:40.307Z,19.39
2018-02-16T12:33:40.398Z,19.39
2018-02-16T12:34:40.306Z,19.37
2018-02-16T12:35:40.320Z,19.36
2018-02-16T12:36:40.348Z,19.35
2018-02-16T12:37:40.362Z,19.34
2018-02-16T12:38:40.341Z,19.33
2018-02-16T12:39:40.409Z,19.33
2018-02-16T12:40:40.412Z,19.32
2018-02-16T12:41:40.549Z,19.31
2018-02-16T12:42:40.368Z,19.31
2018-02-16T12:43:40.372Z,19.32
2018-02-16T12:44:40.301Z,19.33
2018-02-16T12:45:40.315Z,19.33
2018-02-16T12:46:40.327Z,19.33
2018-02-16T12:47:40.324Z,19.33
2018-02-16T12:48:40.328Z,19.33
2018-02-16T12:49:40.319Z,19.33
2018-02-16T12:50:40.313Z,19.33
2018-02-16T12:51:40.377Z,19.33
2018-02-16T12:52:40.346Z,19.33
2018-02-16T12:53:40.345Z,19.33
2018-02-16T12:54:40.411Z,19.33
2018-02-16T12:55:40.319Z,19.33
2018-02-16T12:56:40.432Z,19.33
2018-02-16T12:57:40.317Z,19.33
2018-02-16T12:58:40.415Z,19.33
2018-02-16T12:59:40.359Z,19.34
2018-02-16T13:00:40.350Z,19.34
2018-02-16T13:01:40.317Z,19.34
2018-02-16T13:02:40.300Z,19.34
2018-02-16T13:03:40.348Z,19.34
2018-02-16T13:04:40.337Z,19.33
2018-02-16T13:05:40.325Z,19.33
2018-02-16T13:06:40.326Z,19.33
2018-02-16T13:07:40.353Z,19.32
2018-02-16T13:08:40.311Z,19.32
2018-02-16T13:09:40.290Z,19.32
2018-02-16T13:10:40.311Z,19.32
2018-02-16T13:11:40.291Z,19.32
2018-02-16T13:12:40.296Z,19.32
2018-02-16T13:13:40.325Z,19.32
2018-02-16T13:14:40.318Z,19.31
2018-02-16T13:15:40.311Z,19.31
2018-02-16T13:16:41.768Z,19.31
2018-02-16T13:17:40.415Z,19.31
2018-02-16T13:18:40.342Z,19.31
2018-02-16T13:19:40.299Z,19.31
2018-02-16T13:20:40.311Z,19.31
2018-02-16T13:21:40.288Z,19.3
2018-02-16T13:22:40.309Z,19.3
2018-02-16T13:23:40.313Z,19.29
2018-02-16T13:24:40.310Z,19.29
2018-02-16T13:25:40.275Z,19.29
2018-02-16T13:26:40.271Z,19.29
2018-02-16T13:27:40.277Z,19.29
2018-02-16T13:28:40.305Z,19.28
2018-02-16T13:29:40.289Z,19.28
2018-02-16T13:30:40.381Z,19.27
2018-02-16T13:31:40.384Z,19.27
2018-02-16T13:32:40.294Z,19.27
2018-02-16T13:33:40.436Z,19.27
2018-02-16T13:34:40.293Z,19.27
2018-02-16T13:35:40.344Z,19.27
2018-02-16T13:36:40.293Z,19.26
2018-02-16T13:37:40.332Z,19.26
2018-02-16T13:38:40.568Z,19.25
2018-02-16T13:39:40.296Z,19.25
2018-02-16T13:40:40.295Z,19.25
2018-02-16T13:41:40.389Z,19.25
2018-02-16T13:42:40.296Z,19.24
2018-02-16T13:43:40.444Z,19.24
2018-02-16T13:44:40.275Z,19.24
2018-02-16T13:45:40.305Z,19.24
2018-02-16T13:46:40.291Z,19.24
2018-02-16T13:47:40.309Z,19.24
2018-02-16T13:48:40.334Z,19.24
2018-02-16T13:49:40.295Z,19.24
2018-02-16T13:50:40.313Z,19.25
2018-02-16T13:51:40.373Z,19.25
2018-02-16T13:52:40.553Z,19.25
2018-02-16T13:53:40.272Z,19.25
2018-02-16T13:54:40.360Z,19.25
2018-02-16T13:55:40.523Z,19.26
2018-02-16T13:56:40.319Z,19.27
2018-02-16T13:57:40.339Z,19.26
2018-02-16T13:58:40.279Z,19.26
2018-02-16T13:59:40.277Z,19.26
2018-02-16T14:00:40.306Z,19.27
2018-02-16T14:01:40.311Z,19.27
2018-02-16T14:02:40.292Z,19.27
2018-02-16T14:03:40.300Z,19.27
2018-02-16T14:04:40.297Z,19.27
2018-02-16T14:05:40.287Z,19.27
2018-02-16T14:06:40.289Z,19.27
2018-02-16T14:07:40.292Z,19.27
2018-02-16T14:08:40.280Z,19.27
2018-02-16T14:09:40.281Z,19.27
2018-02-16T14:10:40.268Z,19.28
2018-02-16T14:11:40.310Z,19.28
2018-02-16T14:12:40.293Z,19.28
2018-02-16T14:13:40.271Z,19.28
2018-02-16T14:14:40.282Z,19.29
2018-02-16T14:15:40.283Z,19.29
2018-02-16T14:16:40.307Z,19.3
2018-02-16T14:17:40.272Z,19.29
2018-02-16T14:18:40.292Z,19.3
2018-02-16T14:19:40.300Z,19.3
2018-02-16T14:20:40.291Z,19.3
2018-02-16T14:21:40.270Z,19.3
2018-02-16T14:22:40.267Z,19.3
2018-02-16T14:23:40.285Z,19.3
2018-02-16T14:24:40.284Z,19.3
2018-02-16T14:25:40.335Z,19.31
2018-02-16T14:26:40.268Z,19.35
2018-02-16T14:27:40.318Z,19.37
2018-02-16T14:28:40.309Z,19.39
2018-02-16T14:29:40.455Z,19.41
2018-02-16T14:30:40.326Z,19.43
2018-02-16T14:31:40.283Z,19.45
2018-02-16T14:32:40.280Z,19.45
2018-02-16T14:33:40.275Z,19.46
2018-02-16T14:34:40.272Z,19.48
2018-02-16T14:35:40.293Z,19.49
2018-02-16T14:36:40.286Z,19.51
2018-02-16T14:37:40.302Z,19.52
2018-02-16T14:38:40.299Z,19.53
2018-02-16T14:39:40.307Z,19.53
2018-02-16T14:40:40.333Z,19.54
2018-02-16T14:41:40.278Z,19.55
2018-02-16T14:42:40.279Z,19.56
2018-02-16T14:43:40.275Z,19.57
2018-02-16T14:44:40.278Z,19.57
2018-02-16T14:45:40.337Z,19.57
2018-02-16T14:46:40.361Z,19.58
2018-02-16T14:47:40.311Z,19.57
2018-02-16T14:48:40.268Z,19.56
2018-02-16T14:49:40.250Z,19.54
2018-02-16T14:50:40.259Z,19.52
2018-02-16T14:51:40.265Z,19.51
2018-02-16T14:52:40.285Z,19.5
2018-02-16T14:53:40.259Z,19.5
2018-02-16T14:54:40.316Z,19.49
2018-02-16T14:55:40.269Z,19.47
2018-02-16T14:56:40.295Z,19.46
2018-02-16T14:57:40.281Z,19.45
2018-02-16T14:58:40.289Z,19.45
2018-02-16T14:59:40.284Z,19.45
2018-02-16T15:00:40.342Z,19.45
2018-02-16T15:01:40.377Z,19.44
2018-02-16T15:02:40.273Z,19.44
2018-02-16T15:03:40.269Z,19.44
2018-02-16T15:04:40.607Z,19.44
2018-02-16T15:05:40.407Z,19.43
2018-02-16T15:06:40.632Z,19.43
2018-02-16T15:07:40.304Z,19.44
2018-02-16T15:08:40.279Z,19.43
2018-02-16T15:09:40.261Z,19.43
2018-02-16T15:10:40.255Z,19.44
2018-02-16T15:11:40.255Z,19.44
2018-02-16T15:12:40.273Z,19.43
2018-02-16T15:13:40.271Z,19.44
2018-02-16T15:14:40.289Z,19.44
2018-02-16T15:15:40.253Z,19.44
2018-02-16T15:16:40.249Z,19.44
2018-02-16T15:17:40.691Z,19.45
2018-02-16T15:18:40.386Z,19.44
2018-02-16T15:19:40.460Z,19.44
2018-02-16T15:20:40.257Z,19.45
2018-02-16T15:21:40.257Z,19.45
2018-02-16T15:22:40.250Z,19.45
2018-02-16T15:23:40.267Z,19.45
2018-02-16T15:24:40.271Z,19.45
2018-02-16T15:25:40.356Z,19.45
2018-02-16T15:26:40.411Z,19.45
2018-02-16T15:27:40.318Z,19.45
2018-02-16T15:28:40.272Z,19.45
2018-02-16T15:29:40.261Z,19.45
2018-02-16T15:30:40.246Z,19.45
2018-02-16T15:31:40.229Z,19.45
2018-02-16T15:32:40.241Z,19.45
2018-02-16T15:33:40.289Z,19.44
2018-02-16T15:34:40.243Z,19.43
2018-02-16T15:35:40.264Z,19.44
2018-02-16T15:36:40.247Z,19.43
2018-02-16T15:37:40.255Z,19.42
2018-02-16T15:38:40.268Z,19.42
2018-02-16T15:39:40.235Z,19.42
2018-02-16T15:40:40.284Z,19.41
2018-02-16T15:41:40.250Z,19.41
2018-02-16T15:42:40.283Z,19.41
2018-02-16T15:43:40.259Z,19.4
2018-02-16T15:44:40.242Z,19.4
2018-02-16T15:45:40.298Z,19.4
2018-02-16T15:46:40.265Z,19.4
2018-02-16T15:47:40.238Z,19.39
2018-02-16T15:48:40.254Z,19.39
2018-02-16T15:49:40.237Z,19.39
2018-02-16T15:50:40.588Z,19.39
2018-02-16T15:51:40.252Z,19.39
2018-02-16T15:52:40.257Z,19.39
2018-02-16T15:53:40.244Z,19.39
2018-02-16T15:54:40.229Z,19.39
2018-02-16T15:55:40.247Z,19.39
2018-02-16T15:56:40.268Z,19.39
2018-02-16T15:57:40.258Z,19.39
2018-02-16T15:58:40.259Z,19.39
2018-02-16T15:59:40.242Z,19.39
2018-02-16T16:00:40.232Z,19.39
2018-02-16T16:01:40.239Z,19.39
2018-02-16T16:02:40.249Z,19.39
2018-02-16T16:03:40.241Z,19.39
2018-02-16T16:04:40.237Z,19.39
2018-02-16T16:05:40.285Z,19.4
2018-02-16T16:06:40.246Z,19.4
2018-02-16T16:07:40.267Z,19.4
2018-02-16T16:08:40.239Z,19.4
2018-02-16T16:09:40.240Z,19.4
2018-02-16T16:10:40.306Z,19.41
2018-02-16T16:11:40.225Z,19.41
2018-02-16T16:12:40.262Z,19.41
2018-02-16T16:13:40.239Z,19.41
2018-02-16T16:14:40.252Z,19.41
2018-02-16T16:15:40.485Z,19.41
2018-02-16T16:16:40.216Z,19.42
2018-02-16T16:17:40.223Z,19.42
2018-02-16T16:18:40.235Z,19.42
2018-02-16T16:19:40.254Z,19.42
2018-02-16T16:20:40.346Z,19.42
2018-02-16T16:21:40.226Z,19.41
2018-02-16T16:22:40.230Z,19.41
2018-02-16T16:23:40.526Z,19.41
2018-02-16T16:24:40.242Z,19.41
2018-02-16T16:25:40.237Z,19.41
2018-02-16T16:26:40.232Z,19.41
2018-02-16T16:27:40.282Z,19.41
2018-02-16T16:28:40.286Z,19.4
2018-02-16T16:29:40.228Z,19.4
2018-02-16T16:30:40.245Z,19.39
2018-02-16T16:31:40.250Z,19.39
2018-02-16T16:32:40.239Z,19.39
2018-02-16T16:33:40.268Z,19.39
2018-02-16T16:34:40.230Z,19.39
2018-02-16T16:35:40.266Z,19.38
2018-02-16T16:36:40.237Z,19.38
2018-02-16T16:37:40.260Z,19.38
2018-02-16T16:38:40.243Z,19.37
2018-02-16T16:39:40.243Z,19.37
2018-02-16T16:40:40.266Z,19.36
2018-02-16T16:41:40.224Z,19.36
2018-02-16T16:42:40.267Z,19.35
2018-02-16T16:43:40.230Z,19.35
2018-02-16T16:44:40.227Z,19.35
2018-02-16T16:45:40.317Z,19.34
2018-02-16T16:46:40.240Z,19.34
2018-02-16T16:47:40.302Z,19.34
2018-02-16T16:48:40.238Z,19.35
2018-02-16T16:49:40.228Z,19.35
2018-02-16T16:50:40.251Z,19.35
2018-02-16T16:51:40.221Z,19.35
2018-02-16T16:52:40.257Z,19.35
2018-02-16T16:53:40.258Z,19.36
2018-02-16T16:54:40.235Z,19.32
2018-02-16T16:55:40.216Z,19.3
2018-02-16T16:56:40.281Z,19.28
2018-02-16T16:57:40.267Z,19.26
2018-02-16T16:58:40.253Z,19.25
2018-02-16T16:59:40.320Z,19.23
2018-02-16T17:00:40.210Z,19.23
2018-02-16T17:01:40.340Z,19.21
2018-02-16T17:02:40.265Z,19.21
2018-02-16T17:03:40.264Z,19.2
2018-02-16T17:04:40.212Z,19.18
2018-02-16T17:05:40.220Z,19.15
2018-02-16T17:06:40.257Z,19.21
2018-02-16T17:07:40.233Z,19.26
2018-02-16T17:08:40.240Z,19.28
2018-02-16T17:09:40.221Z,19.32
2018-02-16T17:10:40.244Z,19.34
2018-02-16T17:11:40.241Z,19.37
2018-02-16T17:12:40.221Z,19.38
2018-02-16T17:13:40.225Z,19.39
2018-02-16T17:14:40.228Z,19.38
2018-02-16T17:15:40.211Z,19.37
2018-02-16T17:16:40.264Z,19.37
2018-02-16T17:17:40.231Z,19.36
2018-02-16T17:18:40.318Z,19.35
2018-02-16T17:19:40.228Z,19.35
2018-02-16T17:20:40.204Z,19.35
2018-02-16T17:21:40.239Z,19.34
2018-02-16T17:22:40.259Z,19.34
2018-02-16T17:23:40.356Z,19.33
2018-02-16T17:24:40.327Z,19.33
2018-02-16T17:25:40.309Z,19.34
2018-02-16T17:26:40.233Z,19.34
2018-02-16T17:27:40.257Z,19.33
2018-02-16T17:28:40.227Z,19.33
2018-02-16T17:29:40.203Z,19.34
2018-02-16T17:30:40.224Z,19.33
2018-02-16T17:31:40.212Z,19.34
2018-02-16T17:32:40.433Z,19.33
2018-02-16T17:33:40.219Z,19.34
2018-02-16T17:34:40.210Z,19.34
2018-02-16T17:35:40.216Z,19.34
2018-02-16T17:36:40.298Z,19.34
2018-02-16T17:37:40.238Z,19.34
2018-02-16T17:38:40.206Z,19.35
2018-02-16T17:39:40.211Z,19.35
2018-02-16T17:40:40.214Z,19.35
2018-02-16T17:41:40.211Z,19.35
2018-02-16T17:42:40.209Z,19.34
2018-02-16T17:43:40.206Z,19.34
2018-02-16T17:44:40.275Z,19.34
2018-02-16T17:45:40.268Z,19.33
2018-02-16T17:46:40.273Z,19.32
2018-02-16T17:47:40.227Z,19.32
2018-02-16T17:48:40.207Z,19.32
2018-02-16T17:49:40.251Z,19.32
2018-02-16T17:50:40.196Z,19.32
2018-02-16T17:51:40.219Z,19.3
2018-02-16T17:52:40.234Z,19.27
2018-02-16T17:53:40.228Z,19.27
2018-02-16T17:54:40.229Z,19.29
2018-02-16T17:55:40.196Z,19.3
2018-02-16T17:56:40.208Z,19.3
2018-02-16T17:57:40.182Z,19.31
2018-02-16T17:58:40.232Z,19.31
2018-02-16T17:59:40.200Z,19.31
2018-02-16T18:00:40.210Z,19.31
2018-02-16T18:01:40.193Z,19.31
2018-02-16T18:02:40.230Z,19.3
2018-02-16T18:03:40.323Z,19.3
2018-02-16T18:04:40.287Z,19.31
2018-02-16T18:05:40.211Z,19.31
2018-02-16T18:06:40.187Z,19.3
2018-02-16T18:07:40.199Z,19.29
2018-02-16T18:08:40.221Z,19.28
2018-02-16T18:09:40.193Z,19.29
2018-02-16T18:10:40.397Z,19.28
2018-02-16T18:11:40.209Z,19.28
2018-02-16T18:12:40.317Z,19.27
2018-02-16T18:13:40.195Z,19.27
2018-02-16T18:14:40.202Z,19.27
2018-02-16T18:15:40.183Z,19.26
2018-02-16T18:16:40.199Z,19.26
2018-02-16T18:17:40.267Z,19.25
2018-02-16T18:18:40.191Z,19.24
2018-02-16T18:19:40.306Z,19.23
2018-02-16T18:20:40.342Z,19.22
2018-02-16T18:21:40.215Z,19.21
2018-02-16T18:22:40.188Z,19.21
2018-02-16T18:23:40.288Z,19.21
2018-02-16T18:24:40.310Z,19.19
2018-02-16T18:25:40.230Z,19.19
2018-02-16T18:26:40.189Z,19.18
2018-02-16T18:27:40.212Z,19.16
2018-02-16T18:28:40.212Z,19.15
2018-02-16T18:29:40.218Z,19.14
2018-02-16T18:30:40.188Z,19.13
2018-02-16T18:31:40.195Z,19.13
2018-02-16T18:32:40.185Z,19.11
2018-02-16T18:33:40.187Z,19.11
2018-02-16T18:34:40.344Z,19.09
2018-02-16T18:35:40.204Z,19.09
2018-02-16T18:36:40.175Z,19.08
2018-02-16T18:37:40.202Z,19.07
2018-02-16T18:38:40.244Z,19.06
2018-02-16T18:39:40.200Z,19.05
2018-02-16T18:40:40.204Z,19.04
2018-02-16T18:41:40.188Z,19.03
2018-02-16T18:42:40.208Z,19.02
2018-02-16T18:43:40.207Z,19
2018-02-16T18:44:40.229Z,18.99
2018-02-16T18:45:40.189Z,18.98
2018-02-16T18:46:40.203Z,18.98
2018-02-16T18:47:40.180Z,18.97
2018-02-16T18:48:40.200Z,18.96
2018-02-16T18:49:40.260Z,18.95
2018-02-16T18:50:40.278Z,18.95
2018-02-16T18:51:40.205Z,18.94
2018-02-16T18:52:40.166Z,18.96
2018-02-16T18:53:40.218Z,18.98
2018-02-16T18:54:40.174Z,18.99
2018-02-16T18:55:40.189Z,19
2018-02-16T18:56:40.220Z,19
2018-02-16T18:57:40.217Z,19.01
2018-02-16T18:58:40.408Z,19.02
2018-02-16T18:59:40.197Z,19.03
2018-02-16T19:00:40.196Z,19.03
2018-02-16T19:01:40.177Z,19.04
2018-02-16T19:02:40.180Z,19.04
2018-02-16T19:03:40.179Z,19.02
2018-02-16T19:04:40.330Z,19.01
2018-02-16T19:05:40.182Z,19
2018-02-16T19:06:40.203Z,18.98
2018-02-16T19:07:40.191Z,18.97
2018-02-16T19:08:40.194Z,18.97
2018-02-16T19:09:40.197Z,18.96
2018-02-16T19:10:40.296Z,18.95
2018-02-16T19:11:40.309Z,18.93
2018-02-16T19:12:40.179Z,18.93
2018-02-16T19:13:40.197Z,18.92
2018-02-16T19:14:40.202Z,18.91
2018-02-16T19:15:40.180Z,18.9
2018-02-16T19:16:40.285Z,18.9
2018-02-16T19:17:40.169Z,18.89
2018-02-16T19:18:40.728Z,18.88
2018-02-16T19:19:40.285Z,18.87
2018-02-16T19:20:40.190Z,18.86
2018-02-16T19:21:40.167Z,18.85
2018-02-16T19:22:40.187Z,18.84
2018-02-16T19:23:40.217Z,18.84
2018-02-16T19:24:40.182Z,18.82
2018-02-16T19:25:40.242Z,18.81
2018-02-16T19:26:40.594Z,18.8
2018-02-16T19:27:17.292Z,18.97
2018-02-16T19:28:16.912Z,18.78
2018-02-16T19:29:16.952Z,18.66
2018-02-16T19:30:16.964Z,18.59
2018-02-16T19:31:16.921Z,18.52
2018-02-16T19:32:16.932Z,18.47
2018-02-16T19:33:16.928Z,18.42
2018-02-16T19:34:17.609Z,18.39
2018-02-16T19:35:16.908Z,18.35
2018-02-16T19:36:16.933Z,18.34
2018-02-16T19:37:17.375Z,18.31
2018-02-16T19:38:17.286Z,18.29
2018-02-16T19:39:17.242Z,18.28
2018-02-16T19:40:16.952Z,18.27
2018-02-16T19:41:17.008Z,18.26
2018-02-16T19:42:17.065Z,18.25
2018-02-16T19:43:17.406Z,18.23
2018-02-16T19:44:16.924Z,18.22
2018-02-16T19:45:17.376Z,18.18
2018-02-16T19:46:17.122Z,18.17
2018-02-16T19:47:16.971Z,18.14
2018-02-16T19:48:17.717Z,18.11
2018-02-16T19:49:17.644Z,18.1
2018-02-16T19:50:17.487Z,18.08
2018-02-16T19:51:16.914Z,18.07
2018-02-16T19:52:16.951Z,18.05
2018-02-16T19:53:17.518Z,18.04
2018-02-16T19:54:16.899Z,18.03
2018-02-16T19:55:17.690Z,18.02
2018-02-16T19:56:16.939Z,18
2018-02-16T19:57:17.621Z,17.98
2018-02-16T19:58:17.554Z,17.98
2018-02-16T19:59:16.888Z,17.98
2018-02-16T20:00:16.948Z,17.97
2018-02-16T20:01:17.119Z,17.96
2018-02-16T20:02:16.924Z,17.95
2018-02-16T20:03:17.051Z,17.93
2018-02-16T20:04:16.994Z,17.93
2018-02-16T20:05:16.926Z,17.92
2018-02-16T20:06:17.167Z,17.92
2018-02-16T20:07:17.781Z,17.91
2018-02-16T20:08:17.551Z,17.9
2018-02-16T20:09:17.200Z,17.88
2018-02-16T20:10:16.941Z,17.87
2018-02-16T20:11:17.096Z,17.87
2018-02-16T20:12:16.900Z,17.86
2018-02-16T20:13:16.893Z,17.86
2018-02-16T20:14:17.773Z,17.85
2018-02-16T20:15:16.926Z,17.84
2018-02-16T20:16:17.553Z,17.83
2018-02-16T20:17:17.324Z,17.82
2018-02-16T20:18:17.139Z,17.82
2018-02-16T20:19:16.999Z,17.81
2018-02-16T20:20:17.048Z,17.79
2018-02-16T20:21:16.916Z,17.79
2018-02-16T20:22:17.629Z,17.79
2018-02-16T20:23:16.943Z,17.77
2018-02-16T20:24:16.883Z,17.76
2018-02-16T20:25:16.891Z,17.75
2018-02-16T20:26:17.401Z,17.75
2018-02-16T20:27:17.507Z,17.74
2018-02-16T20:28:17.386Z,17.74